sensor_id;sensor_type;location;lat;lon;timestamp;pressure;altitude;pressure_sealevel;temperature;humidity
69911;BME280;63555;49.920;17.868;2023-05-10T00:01:34;98764.44;;;5.01;65.09
69911;BME280;63555;49.920;17.868;2023-05-10T00:06:35;98746.97;;;4.86;64.99
69911;BME280;63555;49.920;17.868;2023-05-10T00:11:35;98744.41;;;4.68;65.26
69911;BME280;63555;49.920;17.868;2023-05-10T00:16:35;98752.09;;;4.54;65.58
69911;BME280;63555;49.920;17.868;2023-05-10T00:21:36;98743.38;;;4.38;65.44
69911;BME280;63555;49.920;17.868;2023-05-10T00:26:36;98746.56;;;4.26;66.53
69911;BME280;63555;49.920;17.868;2023-05-10T00:31:37;98742.66;;;4.17;66.11
69911;BME280;63555;49.920;17.868;2023-05-10T00:36:37;98742.34;;;4.06;67.02
69911;BME280;63555;49.920;17.868;2023-05-10T00:41:37;98734.28;;;3.93;66.36
69911;BME280;63555;49.920;17.868;2023-05-10T00:46:38;98734.72;;;3.84;66.46
69911;BME280;63555;49.920;17.868;2023-05-10T00:51:38;98730.88;;;3.74;67.24
69911;BME280;63555;49.920;17.868;2023-05-10T00:56:39;98721.66;;;3.67;67.06
69911;BME280;63555;49.920;17.868;2023-05-10T01:01:40;98721.47;;;3.53;67.33
69911;BME280;63555;49.920;17.868;2023-05-10T01:06:41;98721.13;;;3.41;67.36
69911;BME280;63555;49.920;17.868;2023-05-10T01:11:42;98720.78;;;3.30;67.20
69911;BME280;63555;49.920;17.868;2023-05-10T01:16:44;98710.78;;;3.21;67.96
69911;BME280;63555;49.920;17.868;2023-05-10T01:32:51;98708.75;;;2.90;68.01
69911;BME280;63555;49.920;17.868;2023-05-10T01:43:11;98719.84;;;2.75;68.10
69911;BME280;63555;49.920;17.868;2023-05-10T01:48:14;98715.91;;;2.66;68.75
69911;BME280;63555;49.920;17.868;2023-05-10T01:53:18;98724.16;;;2.55;68.66
69911;BME280;63555;49.920;17.868;2023-05-10T01:58:23;98722.03;;;2.45;68.96
69911;BME280;63555;49.920;17.868;2023-05-10T02:03:25;98721.44;;;2.38;69.14
69911;BME280;63555;49.920;17.868;2023-05-10T02:08:28;98719.03;;;2.34;68.80
69911;BME280;63555;49.920;17.868;2023-05-10T02:13:31;98713.19;;;2.29;69.51
69911;BME280;63555;49.920;17.868;2023-05-10T02:18:34;98710.84;;;2.22;69.64
69911;BME280;63555;49.920;17.868;2023-05-10T02:23:37;98706.81;;;2.15;70.00
69911;BME280;63555;49.920;17.868;2023-05-10T02:28:38;98702.59;;;2.13;69.51
69911;BME280;63555;49.920;17.868;2023-05-10T02:33:40;98715.66;;;2.11;69.46
69911;BME280;63555;49.920;17.868;2023-05-10T02:38:44;98714.09;;;2.07;69.73
69911;BME280;63555;49.920;17.868;2023-05-10T02:43:47;98707.41;;;2.02;70.38
69911;BME280;63555;49.920;17.868;2023-05-10T02:48:48;98709.09;;;2.03;70.15
69911;BME280;63555;49.920;17.868;2023-05-10T02:53:49;98705.66;;;2.02;70.03
69911;BME280;63555;49.920;17.868;2023-05-10T02:58:52;98703.97;;;2.01;70.55
69911;BME280;63555;49.920;17.868;2023-05-10T03:03:52;98707.47;;;2.00;70.93
69911;BME280;63555;49.920;17.868;2023-05-10T03:08:52;98703.91;;;2.03;71.19
69911;BME280;63555;49.920;17.868;2023-05-10T03:19:51;98695.19;;;2.04;70.30
69911;BME280;63555;49.920;17.868;2023-05-10T03:24:55;98703.19;;;1.99;70.82
69911;BME280;63555;49.920;17.868;2023-05-10T03:29:57;98691.28;;;1.94;70.63
69911;BME280;63555;49.920;17.868;2023-05-10T03:34:58;98692.06;;;1.96;71.42
69911;BME280;63555;49.920;17.868;2023-05-10T03:39:58;98693.69;;;1.98;70.87
69911;BME280;63555;49.920;17.868;2023-05-10T03:44:58;98696.34;;;1.97;71.66
69911;BME280;63555;49.920;17.868;2023-05-10T03:49:59;98694.28;;;2.05;71.65
69911;BME280;63555;49.920;17.868;2023-05-10T03:54:59;98680.75;;;2.17;71.24
69911;BME280;63555;49.920;17.868;2023-05-10T04:00:00;98680.22;;;2.29;71.67
69911;BME280;63555;49.920;17.868;2023-05-10T04:05:00;98685.78;;;2.40;71.71
69911;BME280;63555;49.920;17.868;2023-05-10T04:10:01;98691.94;;;2.58;72.49
69911;BME280;63555;49.920;17.868;2023-05-10T04:15:01;98690.50;;;2.71;71.94
69911;BME280;63555;49.920;17.868;2023-05-10T04:20:02;98685.53;;;2.85;72.34
69911;BME280;63555;49.920;17.868;2023-05-10T04:25:03;98688.34;;;3.00;72.28
69911;BME280;63555;49.920;17.868;2023-05-10T04:30:05;98689.47;;;3.13;71.89
69911;BME280;63555;49.920;17.868;2023-05-10T04:35:06;98684.38;;;3.29;72.10
69911;BME280;63555;49.920;17.868;2023-05-10T04:40:07;98690.53;;;3.45;72.80
69911;BME280;63555;49.920;17.868;2023-05-10T04:45:08;98692.28;;;3.63;72.46
69911;BME280;63555;49.920;17.868;2023-05-10T04:50:09;98694.13;;;3.78;72.11
69911;BME280;63555;49.920;17.868;2023-05-10T04:55:10;98683.72;;;3.96;71.99
69911;BME280;63555;49.920;17.868;2023-05-10T05:00:11;98687.09;;;4.15;72.54
69911;BME280;63555;49.920;17.868;2023-05-10T05:05:12;98691.16;;;4.38;72.40
69911;BME280;63555;49.920;17.868;2023-05-10T05:10:13;98682.97;;;4.61;72.08
69911;BME280;63555;49.920;17.868;2023-05-10T05:15:13;98682.66;;;4.83;72.21
69911;BME280;63555;49.920;17.868;2023-05-10T05:20:15;98688.41;;;5.05;71.98
69911;BME280;63555;49.920;17.868;2023-05-10T05:25:15;98682.03;;;5.27;71.73
69911;BME280;63555;49.920;17.868;2023-05-10T05:30:16;98690.19;;;5.52;71.82
69911;BME280;63555;49.920;17.868;2023-05-10T05:35:16;98676.47;;;5.79;72.06
69911;BME280;63555;49.920;17.868;2023-05-10T05:40:17;98675.84;;;6.05;71.85
69911;BME280;63555;49.920;17.868;2023-05-10T05:45:17;98674.16;;;6.34;71.46
69911;BME280;63555;49.920;17.868;2023-05-10T05:50:18;98676.69;;;6.64;70.98
69911;BME280;63555;49.920;17.868;2023-05-10T05:55:18;98680.91;;;6.95;70.44
69911;BME280;63555;49.920;17.868;2023-05-10T06:00:18;98685.81;;;7.28;70.21
69911;BME280;63555;49.920;17.868;2023-05-10T06:05:19;98675.91;;;7.73;69.87
69911;BME280;63555;49.920;17.868;2023-05-10T06:10:20;98683.03;;;8.50;70.32
69911;BME280;63555;49.920;17.868;2023-05-10T06:15:20;98680.66;;;10.17;69.62
69911;BME280;63555;49.920;17.868;2023-05-10T06:20:20;98671.09;;;12.57;66.27
69911;BME280;63555;49.920;17.868;2023-05-10T06:25:21;98663.66;;;14.87;62.34
69911;BME280;63555;49.920;17.868;2023-05-10T06:30:21;98675.88;;;16.69;58.70
69911;BME280;63555;49.920;17.868;2023-05-10T06:35:28;98662.91;;;18.58;54.41
69911;BME280;63555;49.920;17.868;2023-05-10T06:40:28;98656.78;;;19.91;51.27
69911;BME280;63555;49.920;17.868;2023-05-10T06:45:29;98663.13;;;21.11;48.79
69911;BME280;63555;49.920;17.868;2023-05-10T06:50:30;98654.66;;;22.09;45.84
69911;BME280;63555;49.920;17.868;2023-05-10T06:55:31;98654.75;;;22.93;43.95
69911;BME280;63555;49.920;17.868;2023-05-10T07:00:31;98647.81;;;23.52;42.02
69911;BME280;63555;49.920;17.868;2023-05-10T07:05:31;98650.63;;;23.38;38.82
69911;BME280;63555;49.920;17.868;2023-05-10T07:10:32;98654.28;;;22.40;38.07
69911;BME280;63555;49.920;17.868;2023-05-10T07:15:33;98653.88;;;22.15;37.60
69911;BME280;63555;49.920;17.868;2023-05-10T07:20:33;98655.06;;;22.34;36.69
69911;BME280;63555;49.920;17.868;2023-05-10T07:25:33;98650.56;;;21.77;36.12
69911;BME280;63555;49.920;17.868;2023-05-10T07:30:34;98652.38;;;21.40;36.21
69911;BME280;63555;49.920;17.868;2023-05-10T07:35:35;98647.25;;;21.96;35.59
69911;BME280;63555;49.920;17.868;2023-05-10T07:40:35;98650.63;;;22.69;34.85
69911;BME280;63555;49.920;17.868;2023-05-10T07:45:36;98648.00;;;23.10;33.93
69911;BME280;63555;49.920;17.868;2023-05-10T07:50:36;98650.19;;;22.65;34.55
69911;BME280;63555;49.920;17.868;2023-05-10T07:55:37;98662.25;;;21.54;35.17
69911;BME280;63555;49.920;17.868;2023-05-10T08:00:37;98649.84;;;20.04;37.15
69911;BME280;63555;49.920;17.868;2023-05-10T08:05:39;98647.84;;;18.89;38.62
69911;BME280;63555;49.920;17.868;2023-05-10T08:10:39;98640.91;;;18.64;39.28
69911;BME280;63555;49.920;17.868;2023-05-10T08:15:40;98640.56;;;18.67;39.33
69911;BME280;63555;49.920;17.868;2023-05-10T08:20:40;98644.56;;;18.14;39.71
69911;BME280;63555;49.920;17.868;2023-05-10T08:25:41;98647.22;;;18.55;39.50
69911;BME280;63555;49.920;17.868;2023-05-10T08:30:41;98644.78;;;19.56;38.38
69911;BME280;63555;49.920;17.868;2023-05-10T08:35:41;98650.69;;;20.80;36.99
69911;BME280;63555;49.920;17.868;2023-05-10T08:40:43;98653.19;;;21.91;35.96
69911;BME280;63555;49.920;17.868;2023-05-10T08:45:44;98656.25;;;22.74;33.83
69911;BME280;63555;49.920;17.868;2023-05-10T08:50:48;98649.94;;;22.39;34.65
69911;BME280;63555;49.920;17.868;2023-05-10T08:55:50;98645.94;;;22.28;34.93
69911;BME280;63555;49.920;17.868;2023-05-10T09:00:51;98651.19;;;22.15;34.31
69911;BME280;63555;49.920;17.868;2023-05-10T09:05:51;98659.75;;;21.68;34.97
69911;BME280;63555;49.920;17.868;2023-05-10T09:10:52;98636.25;;;23.17;33.09
69911;BME280;63555;49.920;17.868;2023-05-10T09:15:53;98644.91;;;24.94;31.62
69911;BME280;63555;49.920;17.868;2023-05-10T09:20:54;98642.00;;;25.74;29.83
69911;BME280;63555;49.920;17.868;2023-05-10T09:26:05;98637.84;;;26.41;28.79
69911;BME280;63555;49.920;17.868;2023-05-10T09:31:05;98634.53;;;26.07;29.86
69911;BME280;63555;49.920;17.868;2023-05-10T09:36:06;98642.69;;;25.56;29.21
69911;BME280;63555;49.920;17.868;2023-05-10T09:41:15;98646.81;;;24.81;29.77
69911;BME280;63555;49.920;17.868;2023-05-10T09:46:16;98645.41;;;23.30;31.61
69911;BME280;63555;49.920;17.868;2023-05-10T09:51:21;98646.00;;;24.47;30.52
69911;BME280;63555;49.920;17.868;2023-05-10T09:56:35;98641.25;;;25.47;28.92
69911;BME280;63555;49.920;17.868;2023-05-10T10:01:36;98629.09;;;26.14;27.34
69911;BME280;63555;49.920;17.868;2023-05-10T10:06:37;98626.53;;;25.87;27.72
69911;BME280;63555;49.920;17.868;2023-05-10T10:11:38;98619.41;;;26.56;26.98
69911;BME280;63555;49.920;17.868;2023-05-10T10:16:39;98621.72;;;27.02;26.32
69911;BME280;63555;49.920;17.868;2023-05-10T10:21:39;98619.75;;;27.09;26.26
69911;BME280;63555;49.920;17.868;2023-05-10T10:26:41;98620.56;;;27.46;25.44
69911;BME280;63555;49.920;17.868;2023-05-10T10:32:10;98601.09;;;27.86;25.12
69911;BME280;63555;49.920;17.868;2023-05-10T10:37:12;98611.38;;;28.26;24.28
69911;BME280;63555;49.920;17.868;2023-05-10T10:42:12;98608.63;;;25.93;25.93
69911;BME280;63555;49.920;17.868;2023-05-10T10:52:25;98603.81;;;25.57;26.46
69911;BME280;63555;49.920;17.868;2023-05-10T10:57:45;98591.34;;;23.66;27.98
69911;BME280;63555;49.920;17.868;2023-05-10T11:02:48;98591.41;;;23.92;28.65
69911;BME280;63555;49.920;17.868;2023-05-10T11:07:55;98595.22;;;23.50;29.58
69911;BME280;63555;49.920;17.868;2023-05-10T11:18:21;98582.72;;;24.63;28.65
69911;BME280;63555;49.920;17.868;2023-05-10T11:23:23;98581.91;;;26.10;26.67
69911;BME280;63555;49.920;17.868;2023-05-10T11:28:23;98574.66;;;27.03;25.59
69911;BME280;63555;49.920;17.868;2023-05-10T11:33:24;98574.03;;;26.58;25.36
69911;BME280;63555;49.920;17.868;2023-05-10T11:38:24;98571.28;;;24.74;27.50
69911;BME280;63555;49.920;17.868;2023-05-10T11:43:26;98561.78;;;24.52;27.87
69911;BME280;63555;49.920;17.868;2023-05-10T11:48:30;98560.63;;;26.45;25.49
69911;BME280;63555;49.920;17.868;2023-05-10T11:53:32;98563.97;;;28.28;24.05
69911;BME280;63555;49.920;17.868;2023-05-10T11:58:33;98564.91;;;29.56;23.44
69911;BME280;63555;49.920;17.868;2023-05-10T12:03:34;98562.81;;;28.71;23.27
69911;BME280;63555;49.920;17.868;2023-05-10T12:08:34;98572.16;;;26.09;25.68
69911;BME280;63555;49.920;17.868;2023-05-10T12:13:39;98557.59;;;25.40;26.55
69911;BME280;63555;49.920;17.868;2023-05-10T12:18:40;98569.16;;;24.96;26.75
69911;BME280;63555;49.920;17.868;2023-05-10T12:23:42;98571.59;;;25.68;25.84
69911;BME280;63555;49.920;17.868;2023-05-10T12:28:42;98554.94;;;26.53;24.52
69911;BME280;63555;49.920;17.868;2023-05-10T12:33:44;98544.59;;;27.71;23.50
69911;BME280;63555;49.920;17.868;2023-05-10T12:38:45;98546.38;;;28.77;23.14
69911;BME280;63555;49.920;17.868;2023-05-10T12:43:48;98544.22;;;30.50;22.01
69911;BME280;63555;49.920;17.868;2023-05-10T12:48:48;98537.78;;;30.56;21.52
69911;BME280;63555;49.920;17.868;2023-05-10T12:53:54;98535.00;;;29.15;22.33
69911;BME280;63555;49.920;17.868;2023-05-10T12:58:55;98534.81;;;28.59;23.21
69911;BME280;63555;49.920;17.868;2023-05-10T13:03:55;98532.81;;;28.54;22.90
69911;BME280;63555;49.920;17.868;2023-05-10T13:08:56;98523.63;;;28.78;22.65
69911;BME280;63555;49.920;17.868;2023-05-10T13:13:57;98521.47;;;29.32;22.49
69911;BME280;63555;49.920;17.868;2023-05-10T13:18:58;98527.44;;;27.59;23.65
69911;BME280;63555;49.920;17.868;2023-05-10T13:23:58;98517.03;;;27.14;24.20
69911;BME280;63555;49.920;17.868;2023-05-10T13:29:00;98516.34;;;27.49;23.91
69911;BME280;63555;49.920;17.868;2023-05-10T13:34:01;98497.13;;;29.66;21.52
69911;BME280;63555;49.920;17.868;2023-05-10T13:39:01;98512.25;;;30.07;21.38
69911;BME280;63555;49.920;17.868;2023-05-10T13:44:03;98501.34;;;29.73;21.27
69911;BME280;63555;49.920;17.868;2023-05-10T13:49:04;98497.41;;;27.90;22.40
69911;BME280;63555;49.920;17.868;2023-05-10T13:54:04;98489.56;;;26.38;23.96
69911;BME280;63555;49.920;17.868;2023-05-10T13:59:05;98488.91;;;26.60;24.08
69911;BME280;63555;49.920;17.868;2023-05-10T14:04:05;98492.00;;;25.33;25.34
69911;BME280;63555;49.920;17.868;2023-05-10T14:09:06;98491.69;;;24.52;26.53
69911;BME280;63555;49.920;17.868;2023-05-10T14:14:06;98477.28;;;24.77;26.49
69911;BME280;63555;49.920;17.868;2023-05-10T14:19:07;98483.78;;;25.53;25.65
69911;BME280;63555;49.920;17.868;2023-05-10T14:24:08;98474.06;;;26.26;25.04
69911;BME280;63555;49.920;17.868;2023-05-10T14:29:08;98472.00;;;26.65;24.65
69911;BME280;63555;49.920;17.868;2023-05-10T14:34:09;98473.88;;;26.46;24.51
69911;BME280;63555;49.920;17.868;2023-05-10T14:39:09;98475.97;;;26.01;24.54
69911;BME280;63555;49.920;17.868;2023-05-10T14:44:12;98480.41;;;26.14;25.07
69911;BME280;63555;49.920;17.868;2023-05-10T14:49:13;98484.03;;;25.06;26.05
69911;BME280;63555;49.920;17.868;2023-05-10T14:54:13;98486.50;;;23.44;28.17
69911;BME280;63555;49.920;17.868;2023-05-10T14:59:13;98485.91;;;22.53;29.06
69911;BME280;63555;49.920;17.868;2023-05-10T15:04:14;98475.13;;;22.81;28.71
69911;BME280;63555;49.920;17.868;2023-05-10T15:09:16;98474.00;;;23.24;27.79
69911;BME280;63555;49.920;17.868;2023-05-10T15:14:16;98482.22;;;21.99;29.29
69911;BME280;63555;49.920;17.868;2023-05-10T15:19:17;98488.97;;;20.88;30.98
69911;BME280;63555;49.920;17.868;2023-05-10T15:24:17;98487.38;;;20.05;31.78
69911;BME280;63555;49.920;17.868;2023-05-10T15:29:18;98489.75;;;19.62;32.73
69911;BME280;63555;49.920;17.868;2023-05-10T15:34:20;98488.91;;;19.39;33.33
69911;BME280;63555;49.920;17.868;2023-05-10T15:39:20;98489.78;;;19.08;33.70
69911;BME280;63555;49.920;17.868;2023-05-10T15:44:20;98487.22;;;18.84;34.05
69911;BME280;63555;49.920;17.868;2023-05-10T15:49:21;98488.97;;;18.69;34.33
69911;BME280;63555;49.920;17.868;2023-05-10T15:54:21;98485.03;;;18.88;34.40
69911;BME280;63555;49.920;17.868;2023-05-10T15:59:21;98484.72;;;18.83;34.57
69911;BME280;63555;49.920;17.868;2023-05-10T16:04:22;98488.31;;;18.59;35.05
69911;BME280;63555;49.920;17.868;2023-05-10T16:09:22;98489.06;;;18.36;35.61
69911;BME280;63555;49.920;17.868;2023-05-10T16:14:23;98492.75;;;18.27;36.19
69911;BME280;63555;49.920;17.868;2023-05-10T16:19:23;98492.94;;;18.18;36.46
69911;BME280;63555;49.920;17.868;2023-05-10T16:24:24;98489.81;;;17.98;37.04
69911;BME280;63555;49.920;17.868;2023-05-10T16:29:25;98497.50;;;17.76;37.44
69911;BME280;63555;49.920;17.868;2023-05-10T16:34:25;98496.97;;;17.65;37.86
69911;BME280;63555;49.920;17.868;2023-05-10T16:39:26;98504.69;;;17.68;37.93
69911;BME280;63555;49.920;17.868;2023-05-10T16:44:26;98501.00;;;17.69;38.37
69911;BME280;63555;49.920;17.868;2023-05-10T16:49:27;98495.81;;;17.59;38.56
69911;BME280;63555;49.920;17.868;2023-05-10T16:54:28;98498.97;;;17.46;39.25
69911;BME280;63555;49.920;17.868;2023-05-10T16:59:28;98508.81;;;17.38;39.44
69911;BME280;63555;49.920;17.868;2023-05-10T17:04:28;98519.78;;;17.35;39.87
69911;BME280;63555;49.920;17.868;2023-05-10T17:09:29;98510.44;;;17.31;40.21
69911;BME280;63555;49.920;17.868;2023-05-10T17:14:30;98524.41;;;17.25;40.64
69911;BME280;63555;49.920;17.868;2023-05-10T17:19:30;98529.22;;;17.13;40.87
69911;BME280;63555;49.920;17.868;2023-05-10T17:24:30;98536.19;;;16.98;41.01
69911;BME280;63555;49.920;17.868;2023-05-10T17:29:32;98542.13;;;16.83;41.24
69911;BME280;63555;49.920;17.868;2023-05-10T17:34:32;98544.25;;;16.72;41.36
69911;BME280;63555;49.920;17.868;2023-05-10T17:39:33;98548.97;;;16.60;41.75
69911;BME280;63555;49.920;17.868;2023-05-10T17:44:33;98541.44;;;16.47;41.82
69911;BME280;63555;49.920;17.868;2023-05-10T17:49:33;98554.16;;;16.36;42.28
69911;BME280;63555;49.920;17.868;2023-05-10T17:54:33;98562.56;;;16.23;42.17
69911;BME280;63555;49.920;17.868;2023-05-10T17:59:34;98565.47;;;16.12;42.39
69911;BME280;63555;49.920;17.868;2023-05-10T18:04:34;98571.88;;;16.01;42.55
69911;BME280;63555;49.920;17.868;2023-05-10T18:09:35;98571.44;;;15.88;42.85
69911;BME280;63555;49.920;17.868;2023-05-10T18:14:35;98572.00;;;15.74;43.32
69911;BME280;63555;49.920;17.868;2023-05-10T18:19:35;98569.28;;;15.56;43.53
69911;BME280;63555;49.920;17.868;2023-05-10T18:24:36;98580.06;;;15.37;44.05
69911;BME280;63555;49.920;17.868;2023-05-10T18:29:36;98582.00;;;15.17;44.68
69911;BME280;63555;49.920;17.868;2023-05-10T18:34:37;98585.63;;;14.98;45.40
69911;BME280;63555;49.920;17.868;2023-05-10T18:39:37;98590.03;;;14.80;45.78
69911;BME280;63555;49.920;17.868;2023-05-10T18:44:37;98599.88;;;14.60;46.19
69911;BME280;63555;49.920;17.868;2023-05-10T18:49:38;98612.63;;;14.37;46.69
69911;BME280;63555;49.920;17.868;2023-05-10T18:54:38;98615.75;;;14.13;47.55
69911;BME280;63555;49.920;17.868;2023-05-10T18:59:39;98626.09;;;13.87;48.64
69911;BME280;63555;49.920;17.868;2023-05-10T19:04:39;98624.78;;;13.53;49.88
69911;BME280;63555;49.920;17.868;2023-05-10T19:09:39;98632.25;;;13.19;51.35
69911;BME280;63555;49.920;17.868;2023-05-10T19:14:40;98634.63;;;12.91;51.98
69911;BME280;63555;49.920;17.868;2023-05-10T19:19:40;98643.59;;;12.69;52.92
69911;BME280;63555;49.920;17.868;2023-05-10T19:24:40;98644.34;;;12.51;53.61
69911;BME280;63555;49.920;17.868;2023-05-10T19:29:41;98647.44;;;12.35;54.22
69911;BME280;63555;49.920;17.868;2023-05-10T19:34:41;98643.06;;;12.24;55.12
69911;BME280;63555;49.920;17.868;2023-05-10T19:39:42;98642.88;;;12.16;55.41
69911;BME280;63555;49.920;17.868;2023-05-10T19:44:42;98643.47;;;12.08;55.79
69911;BME280;63555;49.920;17.868;2023-05-10T19:49:43;98642.19;;;12.03;56.35
69911;BME280;63555;49.920;17.868;2023-05-10T19:54:43;98644.63;;;11.95;56.85
69911;BME280;63555;49.920;17.868;2023-05-10T19:59:44;98646.09;;;11.88;57.58
69911;BME280;63555;49.920;17.868;2023-05-10T20:04:44;98644.56;;;11.85;57.85
69911;BME280;63555;49.920;17.868;2023-05-10T20:09:45;98646.34;;;11.85;58.10
69911;BME280;63555;49.920;17.868;2023-05-10T20:14:45;98653.13;;;11.77;57.97
69911;BME280;63555;49.920;17.868;2023-05-10T20:19:45;98659.84;;;11.70;58.15
69911;BME280;63555;49.920;17.868;2023-05-10T20:24:46;98657.56;;;11.66;58.40
69911;BME280;63555;49.920;17.868;2023-05-10T20:29:47;98656.28;;;11.60;59.08
69911;BME280;63555;49.920;17.868;2023-05-10T20:34:47;98665.16;;;11.59;59.08
69911;BME280;63555;49.920;17.868;2023-05-10T20:39:48;98662.38;;;11.61;59.00
69911;BME280;63555;49.920;17.868;2023-05-10T20:44:49;98660.84;;;11.58;59.45
69911;BME280;63555;49.920;17.868;2023-05-10T20:49:49;98671.66;;;11.55;59.81
69911;BME280;63555;49.920;17.868;2023-05-10T20:54:50;98664.09;;;11.51;59.77
69911;BME280;63555;49.920;17.868;2023-05-10T20:59:50;98671.44;;;11.47;59.97
69911;BME280;63555;49.920;17.868;2023-05-10T21:04:51;98668.06;;;11.45;60.56
69911;BME280;63555;49.920;17.868;2023-05-10T21:09:51;98666.41;;;11.44;61.21
69911;BME280;63555;49.920;17.868;2023-05-10T21:14:51;98662.91;;;11.43;60.34
69911;BME280;63555;49.920;17.868;2023-05-10T21:19:52;98666.41;;;11.44;60.59
69911;BME280;63555;49.920;17.868;2023-05-10T21:24:52;98659.06;;;11.47;60.88
69911;BME280;63555;49.920;17.868;2023-05-10T21:29:52;98661.47;;;11.51;60.30
69911;BME280;63555;49.920;17.868;2023-05-10T21:34:53;98669.25;;;11.52;60.58
69911;BME280;63555;49.920;17.868;2023-05-10T21:39:53;98663.00;;;11.53;60.61
69911;BME280;63555;49.920;17.868;2023-05-10T21:44:53;98664.81;;;11.53;60.44
69911;BME280;63555;49.920;17.868;2023-05-10T21:49:54;98657.97;;;11.50;60.63
69911;BME280;63555;49.920;17.868;2023-05-10T21:54:54;98661.34;;;11.52;60.39
69911;BME280;63555;49.920;17.868;2023-05-10T21:59:55;98672.38;;;11.57;59.86
69911;BME280;63555;49.920;17.868;2023-05-10T22:04:55;98665.16;;;11.59;59.74
69911;BME280;63555;49.920;17.868;2023-05-10T22:09:56;98664.06;;;11.62;59.34
69911;BME280;63555;49.920;17.868;2023-05-10T22:14:56;98672.13;;;11.60;59.44
69911;BME280;63555;49.920;17.868;2023-05-10T22:19:56;98679.56;;;11.55;59.82
69911;BME280;63555;49.920;17.868;2023-05-10T22:24:57;98676.59;;;11.48;60.16
69911;BME280;63555;49.920;17.868;2023-05-10T22:29:57;98683.91;;;11.45;59.93
69911;BME280;63555;49.920;17.868;2023-05-10T22:34:57;98681.16;;;11.46;59.95
69911;BME280;63555;49.920;17.868;2023-05-10T22:39:58;98672.88;;;11.51;59.41
69911;BME280;63555;49.920;17.868;2023-05-10T22:44:58;98681.38;;;11.55;59.65
69911;BME280;63555;49.920;17.868;2023-05-10T22:49:58;98685.31;;;11.60;59.14
69911;BME280;63555;49.920;17.868;2023-05-10T22:55:02;98687.00;;;11.61;59.31
69911;BME280;63555;49.920;17.868;2023-05-10T23:00:03;98685.94;;;11.53;59.22
69911;BME280;63555;49.920;17.868;2023-05-10T23:05:04;98692.81;;;11.44;60.15
69911;BME280;63555;49.920;17.868;2023-05-10T23:10:06;98695.09;;;11.37;59.93
69911;BME280;63555;49.920;17.868;2023-05-10T23:15:07;98698.34;;;11.30;60.48
69911;BME280;63555;49.920;17.868;2023-05-10T23:20:08;98699.16;;;11.19;60.83
69911;BME280;63555;49.920;17.868;2023-05-10T23:25:09;98705.88;;;11.12;60.56
69911;BME280;63555;49.920;17.868;2023-05-10T23:30:09;98709.13;;;11.04;60.80
69911;BME280;63555;49.920;17.868;2023-05-10T23:35:10;98701.94;;;10.95;60.91
69911;BME280;63555;49.920;17.868;2023-05-10T23:40:10;98700.25;;;10.83;61.12
69911;BME280;63555;49.920;17.868;2023-05-10T23:45:12;98710.06;;;10.70;61.65
69911;BME280;63555;49.920;17.868;2023-05-10T23:50:12;98705.03;;;10.56;61.54
69911;BME280;63555;49.920;17.868;2023-05-10T23:55:13;98722.63;;;10.44;62.12
